Time;durP1;ratioP1;P1;durP2;ratioP2;P2;SDS_P1;SDS_P2;PMS_P1;PMS_P2;Temp;Humidity;BMP_temperature;BMP_pressure;BME280_temperature;BME280_humidity;BME280_pressure;Samples;Min_cycle;Max_cycle;Signal;HPM_P1;HPM_P2
2023/11/16 00:00:56;;;;;;;;;;;12.60;99.90;;;;;;5022680;28;19956;-78
2023/11/16 00:03:23;;;;;;;;;;;12.60;99.90;;;;;;5016902;28;19910;-78
2023/11/16 00:05:49;;;;;;;;;;;12.60;99.90;;;;;;5014628;28;20396;-74
2023/11/16 00:08:16;;;;;;;;;;;12.60;99.90;;;;;;5022195;28;19925;-74
2023/11/16 00:10:42;;;;;;;;;;;12.60;99.90;;;;;;5031332;28;19909;-78
2023/11/16 00:13:09;;;;;;;;;;;12.60;99.90;;;;;;5036672;28;20315;-78
2023/11/16 00:15:35;;;;;;;;;;;12.60;99.90;;;;;;5037239;28;20425;-78
2023/11/16 00:18:03;;;;;;;;;;;12.60;99.90;;;;;;5036918;28;20279;-74
2023/11/16 00:20:29;;;;;;;;;;;12.60;99.90;;;;;;5028733;28;19940;-73
2023/11/16 00:22:54;;;;;;;;;;;12.60;99.90;;;;;;5036366;28;20376;-73
2023/11/16 00:25:20;;;;;;;;;;;12.60;99.90;;;;;;5037156;28;19909;-73
2023/11/16 00:27:46;;;;;;;;;;;12.60;99.90;;;;;;5022779;28;20364;-77
2023/11/16 00:30:12;;;;;;;;;;;12.60;99.90;;;;;;5017250;28;19910;-74
2023/11/16 00:32:39;;;;;;;;;;;12.60;99.90;;;;;;5016881;28;19953;-74
2023/11/16 00:35:06;;;;;;;;;;;12.60;99.90;;;;;;5028965;28;19917;-77
2023/11/16 00:37:31;;;;;;;;;;;12.60;99.90;;;;;;5032906;28;19917;-73
2023/11/16 00:39:57;;;;;;;;;;;12.60;99.90;;;;;;5036514;28;20265;-77
2023/11/16 00:42:23;;;;;;;;;;;12.60;99.90;;;;;;5026786;28;19918;-78
2023/11/16 00:44:49;;;;;;;;;;;12.60;99.90;;;;;;5016917;28;19909;-74
2023/11/16 00:47:18;;;;;;;;;;;12.60;99.90;;;;;;5016824;28;20291;-74
2023/11/16 00:49:45;;;;;;;;;;;12.60;99.90;;;;;;5016836;28;20292;-74
2023/11/16 00:52:10;;;;;;;;;;;12.60;99.90;;;;;;5016432;28;20328;-74
2023/11/16 00:54:36;;;;;;;;;;;12.60;99.90;;;;;;5016332;28;19913;-77
2023/11/16 00:57:03;;;;;;;;;;;12.60;99.90;;;;;;5016263;28;19920;-74
2023/11/16 00:59:29;;;;;;;;;;;12.60;99.90;;;;;;5016259;28;19916;-73
2023/11/16 01:01:57;;;;;;;;;;;12.60;99.90;;;;;;5028727;28;19917;-73
2023/11/16 01:04:23;;;;;;;;;;;12.50;99.90;;;;;;5035582;28;19909;-76
2023/11/16 01:06:48;;;;;;;;;;;12.50;99.90;;;;;;5035882;28;19920;-76
2023/11/16 01:09:14;;;;;;;;;;;12.40;99.90;;;;;;5033586;28;20312;-73
2023/11/16 01:11:39;;;;;;;;;;;12.30;99.90;;;;;;5032569;28;19914;-74
2023/11/16 01:14:05;;;;;;;;;;;12.30;99.90;;;;;;5035139;28;19948;-74
2023/11/16 01:16:38;;;;;;;;;;;12.30;99.90;;;;;;5035129;28;20470;-74
2023/11/16 01:19:04;;;;;;;;;;;12.30;99.90;;;;;;5032727;28;19975;-77
2023/11/16 01:21:29;;;;;;;;;;;12.20;99.90;;;;;;5025684;28;19963;-77
2023/11/16 01:24:04;;;;;;;;;;;12.30;99.90;;;;;;5028021;28;19917;-76
2023/11/16 01:26:30;;;;;;;;;;;12.30;99.90;;;;;;5035531;28;19913;-74
2023/11/16 01:29:08;;;;;;;;;;;12.30;99.90;;;;;;5035705;28;20330;-74
2023/11/16 01:31:34;;;;;;;;;;;12.40;99.90;;;;;;5035194;28;20339;-73
2023/11/16 01:34:00;;;;;;;;;;;12.40;99.90;;;;;;5019617;28;20015;-77
2023/11/16 01:36:26;;;;;;;;;;;12.40;99.90;;;;;;5034717;28;20427;-77
2023/11/16 01:38:52;;;;;;;;;;;12.40;99.90;;;;;;5015591;28;20012;-73
2023/11/16 01:41:18;;;;;;;;;;;12.40;99.90;;;;;;5015839;28;19975;-73
2023/11/16 01:43:44;;;;;;;;;;;12.40;99.90;;;;;;5024099;28;20014;-76
2023/11/16 01:46:11;;;;;;;;;;;12.40;99.90;;;;;;5050515;28;19996;-77
2023/11/16 01:48:39;;;;;;;;;;;12.40;99.90;;;;;;5034849;28;19916;-75
2023/11/16 01:51:05;;;;;;;;;;;12.40;99.90;;;;;;5033503;28;20004;-78
2023/11/16 01:53:40;;;;;;;;;;;12.40;99.90;;;;;;5034710;28;19909;-74
2023/11/16 01:56:07;;;;;;;;;;;12.40;99.90;;;;;;5035322;28;19924;-74
2023/11/16 01:58:33;;;;;;;;;;;12.40;99.90;;;;;;5034571;28;20372;-78
2023/11/16 02:00:59;;;;;;;;;;;12.40;99.90;;;;;;5031368;28;20008;-78
2023/11/16 02:03:25;;;;;;;;;;;12.40;99.90;;;;;;5034762;28;19963;-78
2023/11/16 02:05:50;;;;;;;;;;;12.40;99.90;;;;;;5034883;28;19913;-74
2023/11/16 02:08:16;;;;;;;;;;;12.40;99.90;;;;;;5022398;28;20376;-74
2023/11/16 02:10:42;;;;;;;;;;;12.40;99.90;;;;;;5015031;28;20011;-77
2023/11/16 02:13:16;;;;;;;;;;;12.40;99.90;;;;;;5031086;28;20011;-78
2023/11/16 02:15:44;;;;;;;;;;;12.40;99.90;;;;;;5029949;28;19913;-74
2023/11/16 02:18:13;;;;;;;;;;;12.40;99.90;;;;;;5034844;28;19925;-74
2023/11/16 02:20:40;;;;;;;;;;;12.40;99.90;;;;;;5025840;28;19963;-73
2023/11/16 02:23:05;;;;;;;;;;;12.40;99.90;;;;;;5017769;28;19925;-77
2023/11/16 02:25:40;;;;;;;;;;;12.50;99.90;;;;;;5014924;28;19909;-77
2023/11/16 02:28:06;;;;;;;;;;;12.50;99.90;;;;;;5014548;28;19917;-74
2023/11/16 02:30:31;;;;;;;;;;;12.50;99.90;;;;;;5013660;28;20407;-73
2023/11/16 02:32:57;;;;;;;;;;;12.50;99.90;;;;;;5014742;28;19914;-74
2023/11/16 02:35:22;;;;;;;;;;;12.50;99.90;;;;;;5029245;28;19909;-73
2023/11/16 02:37:48;;;;;;;;;;;12.60;99.90;;;;;;5012599;28;19956;-77
2023/11/16 02:40:16;;;;;;;;;;;12.60;99.90;;;;;;5020874;28;19913;-74
2023/11/16 02:42:42;;;;;;;;;;;12.60;99.90;;;;;;5034178;28;19913;-74
2023/11/16 02:45:08;;;;;;;;;;;12.60;99.90;;;;;;5032908;28;20360;-74
2023/11/16 02:47:34;;;;;;;;;;;12.60;99.90;;;;;;5029683;28;19941;-74
2023/11/16 02:49:59;;;;;;;;;;;12.60;99.90;;;;;;5014194;28;19913;-77
2023/11/16 02:52:25;;;;;;;;;;;12.60;99.90;;;;;;5014507;28;19964;-74
2023/11/16 02:54:51;;;;;;;;;;;12.50;99.90;;;;;;5014560;28;19909;-78
2023/11/16 02:57:20;;;;;;;;;;;12.50;99.90;;;;;;5014293;28;19921;-73
2023/11/16 02:59:46;;;;;;;;;;;12.50;99.90;;;;;;5014266;28;19921;-74
2023/11/16 03:02:14;;;;;;;;;;;12.50;99.90;;;;;;5028757;28;20512;-77
2023/11/16 03:04:40;;;;;;;;;;;12.50;99.90;;;;;;5034224;28;19975;-77
2023/11/16 03:07:06;;;;;;;;;;;12.50;99.90;;;;;;5034061;28;20435;-74
2023/11/16 03:09:32;;;;;;;;;;;12.50;99.90;;;;;;5014222;28;19914;-77
2023/11/16 03:11:57;;;;;;;;;;;12.50;99.90;;;;;;5020767;28;19916;-73
2023/11/16 03:14:23;;;;;;;;;;;12.50;99.90;;;;;;5032985;28;19917;-74
2023/11/16 03:16:55;;;;;;;;;;;12.50;99.90;;;;;;5034186;28;20360;-76
2023/11/16 03:19:25;;;;;;;;;;;12.50;99.90;;;;;;5018057;28;19935;-77
2023/11/16 03:21:52;;;;;;;;;;;12.50;99.90;;;;;;5023385;28;19964;-73
2023/11/16 03:24:18;;;;;;;;;;;12.50;99.90;;;;;;5013720;28;20347;-73
2023/11/16 03:26:44;;;;;;;;;;;12.50;99.90;;;;;;5013846;28;19913;-73
2023/11/16 03:29:09;;;;;;;;;;;12.50;99.90;;;;;;5013732;28;20406;-76
2023/11/16 03:31:40;;;;;;;;;;;12.50;99.90;;;;;;5013811;28;19921;-76
2023/11/16 03:34:05;;;;;;;;;;;12.50;99.90;;;;;;5017610;28;19921;-77
2023/11/16 03:36:31;;;;;;;;;;;12.50;99.90;;;;;;5024041;28;20331;-74
2023/11/16 03:38:58;;;;;;;;;;;12.50;99.90;;;;;;5023483;28;19917;-73
2023/11/16 03:41:26;;;;;;;;;;;12.50;99.90;;;;;;5033592;28;19913;-77
2023/11/16 03:43:52;;;;;;;;;;;12.50;99.90;;;;;;5032898;28;19967;-73
2023/11/16 03:46:17;;;;;;;;;;;12.50;99.90;;;;;;5033318;28;19909;-73
2023/11/16 03:48:43;;;;;;;;;;;12.50;99.90;;;;;;5022641;28;19917;-73
2023/11/16 03:51:11;;;;;;;;;;;12.50;99.90;;;;;;5013540;28;19910;-76
2023/11/16 03:53:37;;;;;;;;;;;12.50;99.90;;;;;;5013631;28;19960;-75
2023/11/16 03:56:04;;;;;;;;;;;12.60;99.90;;;;;;5012722;28;19960;-76
2023/11/16 03:58:29;;;;;;;;;;;12.50;99.90;;;;;;5013388;28;19917;-77
2023/11/16 04:00:55;;;;;;;;;;;12.60;99.90;;;;;;5019045;28;19916;-73
2023/11/16 04:03:20;;;;;;;;;;;12.60;99.90;;;;;;5032546;28;20442;-73
2023/11/16 04:05:46;;;;;;;;;;;12.60;99.90;;;;;;5033197;28;19909;-75
2023/11/16 04:08:11;;;;;;;;;;;12.60;99.90;;;;;;5027854;28;20392;-76
2023/11/16 04:10:37;;;;;;;;;;;12.60;99.90;;;;;;5013174;28;20004;-76
2023/11/16 04:13:03;;;;;;;;;;;12.60;99.90;;;;;;5028392;28;19920;-72
2023/11/16 04:15:29;;;;;;;;;;;12.60;99.90;;;;;;5032995;28;19910;-74
2023/11/16 04:17:54;;;;;;;;;;;12.60;99.90;;;;;;5030946;28;20019;-73
2023/11/16 04:20:20;;;;;;;;;;;12.70;99.90;;;;;;5018450;28;20336;-77
2023/11/16 04:22:45;;;;;;;;;;;12.70;99.90;;;;;;5020009;28;20372;-76
2023/11/16 04:25:22;;;;;;;;;;;12.70;99.90;;;;;;5013274;28;20422;-73
2023/11/16 04:27:54;;;;;;;;;;;12.80;99.90;;;;;;5012963;28;19952;-73
2023/11/16 04:30:20;;;;;;;;;;;12.80;99.90;;;;;;5012963;28;19914;-72
2023/11/16 04:32:45;;;;;;;;;;;12.80;99.90;;;;;;5013275;28;20004;-78
2023/11/16 04:35:13;;;;;;;;;;;12.90;99.90;;;;;;5026237;28;19947;-77
2023/11/16 04:37:39;;;;;;;;;;;12.90;99.90;;;;;;5013856;28;20291;-73
2023/11/16 04:40:13;;;;;;;;;;;12.90;99.90;;;;;;5031588;28;20425;-73
2023/11/16 04:42:42;;;;;;;;;;;12.90;99.90;;;;;;5030224;28;19921;-72
2023/11/16 04:45:11;;;;;;;;;;;13.00;99.90;;;;;;5033490;28;19913;-73
2023/11/16 04:47:39;;;;;;;;;;;13.00;99.90;;;;;;5036844;28;19909;-73
2023/11/16 04:50:09;;;;;;;;;;;13.00;99.90;;;;;;5035627;28;20672;-77
2023/11/16 04:52:35;;;;;;;;;;;13.10;99.90;;;;;;5036123;28;20004;-73
2023/11/16 04:55:01;;;;;;;;;;;13.20;99.90;;;;;;5036043;28;19975;-74
2023/11/16 04:57:26;;;;;;;;;;;13.20;99.90;;;;;;5035477;28;19986;-74
2023/11/16 04:59:53;;;;;;;;;;;13.30;99.90;;;;;;5019943;28;19959;-77
2023/11/16 05:02:19;;;;;;;;;;;13.30;99.90;;;;;;5033133;28;19909;-77
2023/11/16 05:04:45;;;;;;;;;;;13.40;99.90;;;;;;5035770;28;19950;-73
2023/11/16 05:07:12;;;;;;;;;;;13.50;99.90;;;;;;5027692;28;19914;-73
2023/11/16 05:09:38;;;;;;;;;;;13.50;99.90;;;;;;5026786;28;20023;-76
2023/11/16 05:12:03;;;;;;;;;;;13.60;99.90;;;;;;5028580;28;20462;-73
2023/11/16 05:14:29;;;;;;;;;;;13.70;99.90;;;;;;5031437;28;20355;-77
2023/11/16 05:16:54;;;;;;;;;;;13.80;99.90;;;;;;5029620;28;19952;-73
2023/11/16 05:19:20;;;;;;;;;;;13.80;99.90;;;;;;5027573;28;19925;-73
2023/11/16 05:21:45;;;;;;;;;;;14.00;99.90;;;;;;5022257;28;19914;-73
2023/11/16 05:24:11;;;;;;;;;;;14.10;99.90;;;;;;5011683;28;19922;-73
2023/11/16 05:26:37;;;;;;;;;;;14.20;99.90;;;;;;5011643;28;20376;-75
2023/11/16 05:29:02;;;;;;;;;;;14.30;99.90;;;;;;5011416;28;19921;-72
2023/11/16 05:31:28;;;;;;;;;;;14.50;99.90;;;;;;5011483;28;19929;-76
2023/11/16 05:33:55;;;;;;;;;;;14.70;99.90;;;;;;5014459;28;19921;-72
2023/11/16 05:36:21;;;;;;;;;;;14.80;99.90;;;;;;5028466;28;19920;-73
2023/11/16 05:38:47;;;;;;;;;;;15.00;99.90;;;;;;5028289;28;19921;-77
2023/11/16 05:41:13;;;;;;;;;;;15.10;99.90;;;;;;5031128;28;19913;-77
2023/11/16 05:43:39;;;;;;;;;;;15.30;99.90;;;;;;5025777;28;19917;-73
2023/11/16 05:46:05;;;;;;;;;;;15.50;99.90;;;;;;5022353;28;19923;-74
2023/11/16 05:48:31;;;;;;;;;;;15.90;99.90;;;;;;5011286;28;20381;-72
2023/11/16 05:50:57;;;;;;;;;;;16.30;99.90;;;;;;5011555;28;19944;-73
2023/11/16 05:53:22;;;;;;;;;;;16.40;99.90;;;;;;5011154;28;19949;-76
2023/11/16 05:55:48;;;;;;;;;;;16.50;99.90;;;;;;5010685;28;20002;-73
2023/11/16 05:58:14;;;;;;;;;;;16.60;99.90;;;;;;5026566;28;19921;-72
2023/11/16 06:00:39;;;;;;;;;;;16.70;99.90;;;;;;5014654;28;20052;-75
2023/11/16 06:03:05;;;;;;;;;;;16.70;99.90;;;;;;5030418;28;19913;-77
2023/11/16 06:05:35;;;;;;;;;;;16.70;99.90;;;;;;5030521;28;19917;-79
2023/11/16 06:08:01;;;;;;;;;;;16.70;99.90;;;;;;5030551;28;20004;-73
2023/11/16 06:10:26;;;;;;;;;;;16.70;99.90;;;;;;5027920;28;20502;-74
2023/11/16 06:12:51;;;;;;;;;;;16.80;99.90;;;;;;5032380;28;19917;-72
2023/11/16 06:15:18;;;;;;;;;;;16.70;99.90;;;;;;5034461;28;20299;-72
2023/11/16 06:17:44;;;;;;;;;;;16.70;99.90;;;;;;5034989;28;19924;-78
2023/11/16 06:20:10;;;;;;;;;;;16.60;99.90;;;;;;5024136;28;19925;-75
2023/11/16 06:22:38;;;;;;;;;;;16.50;99.90;;;;;;5022428;28;20210;-73
2023/11/16 06:25:04;;;;;;;;;;;16.50;99.90;;;;;;5014787;28;19917;-73
2023/11/16 06:27:30;;;;;;;;;;;16.40;99.90;;;;;;5014841;28;19996;-74
2023/11/16 06:29:56;;;;;;;;;;;16.40;99.90;;;;;;5014694;28;20008;-78
2023/11/16 06:32:22;;;;;;;;;;;16.50;99.90;;;;;;5014463;28;19918;-78
2023/11/16 06:34:48;;;;;;;;;;;16.40;99.90;;;;;;5025659;28;19913;-73
2023/11/16 06:37:14;;;;;;;;;;;16.40;99.90;;;;;;5031733;28;19924;-73
2023/11/16 06:39:39;;;;;;;;;;;16.30;99.90;;;;;;5025661;28;19917;-74
2023/11/16 06:42:05;;;;;;;;;;;16.30;99.90;;;;;;5033658;28;19910;-72
2023/11/16 06:44:31;;;;;;;;;;;16.30;99.90;;;;;;5023025;28;19917;-77
2023/11/16 06:46:57;;;;;;;;;;;16.40;99.90;;;;;;5018394;28;19913;-77
2023/11/16 06:49:26;;;;;;;;;;;16.40;99.90;;;;;;5013932;28;19936;-73
2023/11/16 06:51:52;;;;;;;;;;;16.30;99.90;;;;;;5013902;28;19964;-72
2023/11/16 06:54:18;;;;;;;;;;;16.40;99.90;;;;;;5019523;28;20344;-73
2023/11/16 06:56:44;;;;;;;;;;;16.30;99.90;;;;;;5033808;28;20006;-76
2023/11/16 06:59:15;;;;;;;;;;;16.30;99.90;;;;;;5026862;28;20055;-76
2023/11/16 07:01:42;;;;;;;;;;;16.40;99.90;;;;;;5032854;28;19910;-72
2023/11/16 07:04:07;;;;;;;;;;;16.40;99.90;;;;;;5032608;28;20410;-72
2023/11/16 07:06:33;;;;;;;;;;;16.30;99.90;;;;;;5032367;28;19917;-73
2023/11/16 07:08:59;;;;;;;;;;;16.20;99.90;;;;;;5028106;28;19920;-77
2023/11/16 07:11:24;;;;;;;;;;;16.10;99.90;;;;;;5031290;28;19916;-78
2023/11/16 07:13:50;;;;;;;;;;;16.10;99.90;;;;;;5017985;28;19917;-73
2023/11/16 07:16:16;;;;;;;;;;;16.00;99.90;;;;;;5021119;28;19978;-71
2023/11/16 07:18:42;;;;;;;;;;;16.00;99.90;;;;;;5024104;28;19974;-76
2023/11/16 07:21:08;;;;;;;;;;;16.00;99.90;;;;;;5025457;28;19921;-72
2023/11/16 07:23:36;;;;;;;;;;;16.00;99.90;;;;;;5027047;28;20423;-72
2023/11/16 07:26:08;;;;;;;;;;;15.90;99.90;;;;;;5024665;28;19917;-77
2023/11/16 07:28:34;;;;;;;;;;;15.80;99.90;;;;;;5025910;28;19917;-72
2023/11/16 07:30:59;;;;;;;;;;;15.80;99.90;;;;;;5025083;28;20400;-73
2023/11/16 07:33:25;;;;;;;;;;;15.80;99.90;;;;;;5030513;28;19909;-73
2023/11/16 07:35:51;;;;;;;;;;;15.80;99.90;;;;;;5026375;28;19918;-72
2023/11/16 07:38:17;;;;;;;;;;;15.80;99.90;;;;;;5026839;28;20159;-78
2023/11/16 07:40:43;;;;;;;;;;;15.70;99.90;;;;;;5014049;28;19914;-72
2023/11/16 07:43:09;;;;;;;;;;;15.60;99.90;;;;;;5028181;28;20368;-76
2023/11/16 07:45:34;;;;;;;;;;;15.60;99.90;;;;;;5016213;28;19940;-73
2023/11/16 07:48:03;;;;;;;;;;;15.50;99.90;;;;;;5025440;28;19913;-74
2023/11/16 07:50:31;;;;;;;;;;;15.60;99.90;;;;;;5025083;28;19920;-75
2023/11/16 07:52:57;;;;;;;;;;;15.50;99.90;;;;;;5019987;28;19917;-72
2023/11/16 07:55:25;;;;;;;;;;;15.60;99.90;;;;;;5027736;28;19959;-72
2023/11/16 07:57:52;;;;;;;;;;;15.70;99.90;;;;;;5024946;28;19917;-74
2023/11/16 08:01:04;;;;;;;;;;;15.70;99.90;;;;;;5027672;28;20391;-73
2023/11/16 08:05:49;;;;;;;;;;;15.60;99.90;;;;;;5018307;28;19947;-76
2023/11/16 08:08:15;;;;;;;;;;;15.70;99.90;;;;;;5021750;28;19913;-75
2023/11/16 08:10:42;;;;;;;;;;;15.60;99.90;;;;;;5025292;28;20027;-72
2023/11/16 08:13:10;;;;;;;;;;;15.60;99.90;;;;;;5026286;28;19921;-73
2023/11/16 08:15:39;;;;;;;;;;;15.90;99.90;;;;;;5021696;28;20268;-75
2023/11/16 08:18:06;;;;;;;;;;;15.90;99.90;;;;;;5022500;28;19921;-79
2023/11/16 08:20:32;;;;;;;;;;;15.90;99.90;;;;;;5022201;28;19984;-76
2023/11/16 08:22:58;;;;;;;;;;;15.90;99.90;;;;;;5017888;28;19945;-75
2023/11/16 08:25:24;;;;;;;;;;;15.90;99.90;;;;;;5019909;28;19921;-77
2023/11/16 08:27:51;;;;;;;;;;;15.90;99.90;;;;;;5013917;28;19914;-74
2023/11/16 08:30:17;;;;;;;;;;;16.00;99.90;;;;;;5016189;28;20304;-77
2023/11/16 08:32:43;;;;;;;;;;;16.00;99.90;;;;;;5013825;28;19945;-72
2023/11/16 08:35:10;;;;;;;;;;;15.90;99.90;;;;;;5020351;28;20404;-72
2023/11/16 08:37:36;;;;;;;;;;;15.90;99.90;;;;;;5030993;28;19917;-72
2023/11/16 08:40:03;;;;;;;;;;;15.80;99.90;;;;;;5028734;28;20289;-75
2023/11/16 08:42:37;;;;;;;;;;;15.80;99.90;;;;;;5031006;28;19940;-76
2023/11/16 08:45:04;;;;;;;;;;;15.70;99.90;;;;;;5022644;28;19910;-72
2023/11/16 08:47:31;;;;;;;;;;;15.80;99.90;;;;;;5013630;28;20024;-73
2023/11/16 08:49:57;;;;;;;;;;;15.80;99.90;;;;;;5016402;28;20456;-76
2023/11/16 08:52:23;;;;;;;;;;;15.80;99.90;;;;;;5032153;28;19920;-72
2023/11/16 08:54:48;;;;;;;;;;;15.80;99.90;;;;;;5024466;28;20300;-76
2023/11/16 08:57:14;;;;;;;;;;;15.80;99.90;;;;;;5023373;28;19917;-74
2023/11/16 08:59:58;;;;;;;;;;;15.70;99.90;;;;;;5032192;28;19916;-73
2023/11/16 09:02:24;;;;;;;;;;;15.80;99.90;;;;;;5030910;28;19917;-76
2023/11/16 09:04:50;;;;;;;;;;;15.80;99.90;;;;;;5020361;28;19929;-75
2023/11/16 09:07:16;;;;;;;;;;;15.80;99.90;;;;;;5022284;28;19917;-77
2023/11/16 09:09:45;;;;;;;;;;;15.80;99.90;;;;;;5031692;28;19929;-76
2023/11/16 09:12:16;;;;;;;;;;;15.90;99.90;;;;;;5032406;28;19917;-73
2023/11/16 09:14:42;;;;;;;;;;;15.80;99.90;;;;;;5020739;28;19956;-76
2023/11/16 09:17:16;;;;;;;;;;;15.70;99.90;;;;;;5021248;28;19955;-73
2023/11/16 09:19:42;;;;;;;;;;;15.70;99.90;;;;;;5030043;28;19968;-80
2023/11/16 09:22:09;;;;;;;;;;;15.70;99.90;;;;;;5040112;28;20331;-80
2023/11/16 09:24:37;;;;;;;;;;;15.70;99.90;;;;;;5023435;28;20040;-74
2023/11/16 09:27:04;;;;;;;;;;;15.80;99.90;;;;;;5018831;28;19914;-80
2023/11/16 09:29:30;;;;;;;;;;;15.80;99.90;;;;;;5015899;28;19952;-80
2023/11/16 09:31:56;;;;;;;;;;;15.80;99.90;;;;;;5024403;28;19921;-81
2023/11/16 09:34:21;;;;;;;;;;;15.80;99.90;;;;;;5032369;28;19924;-81
2023/11/16 09:36:49;;;;;;;;;;;15.80;99.90;;;;;;5024823;28;20008;-80
2023/11/16 09:39:16;;;;;;;;;;;15.80;99.90;;;;;;5031692;28;20363;-83
2023/11/16 09:41:49;;;;;;;;;;;15.80;99.90;;;;;;5028914;28;19925;-82
2023/11/16 09:44:17;;;;;;;;;;;15.70;99.90;;;;;;5028697;28;19917;-73
2023/11/16 09:46:46;;;;;;;;;;;15.70;99.90;;;;;;5022766;28;19913;-73
2023/11/16 09:49:16;;;;;;;;;;;15.80;99.90;;;;;;5013633;28;19938;-74
2023/11/16 09:51:43;;;;;;;;;;;15.80;99.90;;;;;;5027297;28;19917;-73
2023/11/16 09:54:09;;;;;;;;;;;15.90;99.90;;;;;;5032204;28;19917;-75
2023/11/16 09:56:40;;;;;;;;;;;15.90;99.90;;;;;;5032451;28;19925;-74
2023/11/16 09:59:13;;;;;;;;;;;15.90;99.90;;;;;;5020111;28;19925;-78
2023/11/16 10:01:45;;;;;;;;;;;15.90;99.90;;;;;;5017807;28;20577;-74
2023/11/16 10:04:12;;;;;;;;;;;15.80;99.90;;;;;;5029112;28;20365;-81
2023/11/16 10:06:40;;;;;;;;;;;15.90;99.90;;;;;;5023491;28;19917;-74
2023/11/16 10:09:14;;;;;;;;;;;15.90;99.90;;;;;;5024205;28;20032;-73
2023/11/16 10:11:40;;;;;;;;;;;15.90;99.90;;;;;;5016933;28;19924;-73
2023/11/16 10:14:07;;;;;;;;;;;16.10;99.90;;;;;;5027701;28;19963;-78
2023/11/16 10:16:32;;;;;;;;;;;16.10;99.90;;;;;;5030951;28;19920;-73
2023/11/16 10:19:05;;;;;;;;;;;16.00;99.90;;;;;;5020091;28;19921;-72
2023/11/16 10:21:32;;;;;;;;;;;16.10;99.90;;;;;;5031827;28;19917;-78
2023/11/16 10:23:57;;;;;;;;;;;16.10;99.90;;;;;;5031441;28;19913;-72
2023/11/16 10:26:23;;;;;;;;;;;16.10;99.90;;;;;;5030006;28;19939;-71
2023/11/16 10:28:54;;;;;;;;;;;16.10;99.90;;;;;;5031111;28;19916;-71
2023/11/16 10:31:23;;;;;;;;;;;16.10;99.90;;;;;;5027088;28;19968;-71
2023/11/16 10:33:49;;;;;;;;;;;16.10;99.90;;;;;;5019279;28;19917;-73
2023/11/16 10:36:15;;;;;;;;;;;16.10;99.90;;;;;;5028725;28;19928;-78
2023/11/16 10:38:44;;;;;;;;;;;16.10;99.90;;;;;;5028516;28;19921;-76
2023/11/16 10:41:10;;;;;;;;;;;16.10;99.90;;;;;;5029328;28;19913;-78
2023/11/16 10:43:35;;;;;;;;;;;16.20;99.90;;;;;;5011259;28;20000;-72
2023/11/16 10:46:01;;;;;;;;;;;16.00;99.90;;;;;;5026265;28;19920;-71
2023/11/16 10:48:27;;;;;;;;;;;16.10;99.90;;;;;;5019869;28;20003;-72
2023/11/16 10:51:01;;;;;;;;;;;16.30;99.90;;;;;;5017481;28;19920;-78
2023/11/16 10:53:32;;;;;;;;;;;16.10;99.90;;;;;;5010405;28;20402;-76
2023/11/16 10:55:58;;;;;;;;;;;16.10;99.90;;;;;;5012212;28;19910;-80
2023/11/16 10:58:31;;;;;;;;;;;16.00;99.90;;;;;;5005012;28;20082;-73
2023/11/16 11:00:57;;;;;;;;;;;16.10;99.90;;;;;;5004005;28;19914;-72
2023/11/16 11:03:23;;;;;;;;;;;16.10;99.90;;;;;;5010015;28;19920;-81
2023/11/16 11:05:52;;;;;;;;;;;16.00;99.90;;;;;;5012470;28;19918;-80
2023/11/16 11:08:19;;;;;;;;;;;16.10;99.90;;;;;;5009079;28;19914;-73
2023/11/16 11:10:53;;;;;;;;;;;16.00;99.90;;;;;;4994421;28;20379;-81
2023/11/16 11:13:25;;;;;;;;;;;15.90;99.90;;;;;;5007280;28;19909;-81
2023/11/16 11:15:53;;;;;;;;;;;15.80;99.90;;;;;;5003607;28;20383;-80
2023/11/16 11:18:24;;;;;;;;;;;15.70;99.90;;;;;;4996385;28;19929;-81
2023/11/16 11:20:52;;;;;;;;;;;15.70;99.90;;;;;;5010311;28;20012;-80
2023/11/16 11:23:18;;;;;;;;;;;15.60;99.90;;;;;;5007094;28;20284;-73
2023/11/16 11:25:44;;;;;;;;;;;15.70;99.90;;;;;;5005505;28;20178;-80
2023/11/16 11:28:14;;;;;;;;;;;15.60;99.90;;;;;;4994860;28;20595;-73
2023/11/16 11:30:59;;;;;;;;;;;15.60;99.90;;;;;;4996110;28;19922;-82
2023/11/16 11:33:35;;;;;;;;;;;15.70;99.90;;;;;;5005070;28;19933;-81
2023/11/16 11:36:03;;;;;;;;;;;15.70;99.90;;;;;;5006541;28;19914;-73
2023/11/16 11:38:30;;;;;;;;;;;15.70;99.90;;;;;;5011245;28;19921;-73
2023/11/16 11:40:59;;;;;;;;;;;15.70;99.90;;;;;;5003229;28;20011;-74
2023/11/16 11:43:26;;;;;;;;;;;15.70;99.90;;;;;;5000223;28;19926;-80
2023/11/16 11:45:52;;;;;;;;;;;15.70;99.90;;;;;;5007262;28;20295;-74
2023/11/16 11:48:18;;;;;;;;;;;15.70;99.90;;;;;;5006462;28;20427;-74
2023/11/16 11:50:44;;;;;;;;;;;15.80;99.90;;;;;;4997844;28;20247;-73
2023/11/16 11:53:16;;;;;;;;;;;15.80;99.90;;;;;;5003189;28;20011;-74
2023/11/16 11:55:45;;;;;;;;;;;15.80;99.90;;;;;;4995209;28;20000;-80
2023/11/16 11:58:11;;;;;;;;;;;15.80;99.90;;;;;;5006398;28;19929;-78
2023/11/16 12:00:47;;;;;;;;;;;15.80;99.90;;;;;;5002046;28;19914;-74
2023/11/16 12:03:12;;;;;;;;;;;15.80;99.90;;;;;;4994692;28;20321;-74
2023/11/16 12:05:38;;;;;;;;;;;16.10;99.90;;;;;;4991080;28;20531;-75
2023/11/16 12:08:03;;;;;;;;;;;16.10;99.90;;;;;;4999433;28;19922;-80
2023/11/16 12:10:30;;;;;;;;;;;16.10;99.90;;;;;;5008616;28;19918;-80
2023/11/16 12:12:58;;;;;;;;;;;16.10;99.90;;;;;;5004997;28;19924;-75
2023/11/16 12:15:24;;;;;;;;;;;16.20;99.90;;;;;;5007882;28;19917;-82
2023/11/16 12:17:50;;;;;;;;;;;16.30;99.90;;;;;;5001083;28;20306;-74
2023/11/16 12:20:16;;;;;;;;;;;16.20;99.90;;;;;;4993051;28;19929;-73
2023/11/16 12:22:41;;;;;;;;;;;16.10;99.90;;;;;;4999233;28;19917;-81
2023/11/16 12:25:13;;;;;;;;;;;16.20;99.90;;;;;;5008312;28;19923;-74
2023/11/16 12:27:42;;;;;;;;;;;16.20;99.90;;;;;;5009849;28;20419;-75
2023/11/16 12:30:15;;;;;;;;;;;16.40;99.90;;;;;;4998904;28;19969;-74
2023/11/16 12:32:40;;;;;;;;;;;16.30;99.90;;;;;;4988601;28;19925;-79
2023/11/16 12:35:07;;;;;;;;;;;16.40;99.90;;;;;;4997818;28;19918;-82
2023/11/16 12:37:37;;;;;;;;;;;16.40;99.90;;;;;;5002066;28;19918;-73
2023/11/16 12:40:09;;;;;;;;;;;16.30;99.90;;;;;;5006111;28;19913;-72
2023/11/16 12:42:35;;;;;;;;;;;16.10;99.90;;;;;;5007255;28;20297;-72
2023/11/16 12:45:00;;;;;;;;;;;16.10;99.90;;;;;;5004603;28;20016;-75
2023/11/16 12:47:27;;;;;;;;;;;16.10;99.90;;;;;;5008758;28;19917;-82
2023/11/16 12:49:52;;;;;;;;;;;16.30;99.90;;;;;;5002926;28;19917;-81
2023/11/16 12:52:18;;;;;;;;;;;16.40;99.90;;;;;;4994445;28;19945;-73
2023/11/16 12:54:44;;;;;;;;;;;16.10;99.90;;;;;;5000362;28;20472;-74
2023/11/16 12:57:09;;;;;;;;;;;16.10;99.90;;;;;;5004129;28;19927;-73
2023/11/16 12:59:35;;;;;;;;;;;16.40;99.90;;;;;;4995947;28;19988;-74
2023/11/16 13:02:01;;;;;;;;;;;16.50;99.90;;;;;;4998862;28;20269;-79
2023/11/16 13:04:28;;;;;;;;;;;16.30;99.90;;;;;;4998146;28;19913;-77
2023/11/16 13:06:56;;;;;;;;;;;16.10;99.90;;;;;;5019835;28;20447;-73
2023/11/16 13:09:23;;;;;;;;;;;16.00;99.90;;;;;;4998590;28;19917;-73
2023/11/16 13:11:48;;;;;;;;;;;16.00;99.90;;;;;;4998184;28;20301;-74
2023/11/16 13:14:14;;;;;;;;;;;16.00;99.90;;;;;;4992707;28;19922;-77
2023/11/16 13:16:41;;;;;;;;;;;15.90;99.90;;;;;;5012240;28;19971;-78
2023/11/16 13:19:07;;;;;;;;;;;15.90;99.90;;;;;;5004334;28;20378;-73
2023/11/16 13:21:33;;;;;;;;;;;15.80;99.90;;;;;;4996195;28;20008;-74
2023/11/16 13:23:58;;;;;;;;;;;15.70;99.90;;;;;;5008232;28;19917;-74
2023/11/16 13:26:25;;;;;;;;;;;15.70;99.90;;;;;;5007079;28;20000;-76
2023/11/16 13:28:52;;;;;;;;;;;15.80;99.90;;;;;;5007649;28;19924;-78
2023/11/16 13:31:18;;;;;;;;;;;15.90;99.90;;;;;;5000445;28;20421;-73
2023/11/16 13:33:45;;;;;;;;;;;15.70;99.90;;;;;;5001791;28;19944;-74
2023/11/16 13:36:10;;;;;;;;;;;15.60;99.90;;;;;;5012723;28;19913;-74
2023/11/16 13:38:36;;;;;;;;;;;15.50;99.90;;;;;;5004454;28;19964;-73
2023/11/16 13:41:04;;;;;;;;;;;15.50;99.90;;;;;;5011898;28;19913;-78
2023/11/16 13:43:29;;;;;;;;;;;15.50;99.90;;;;;;5011753;28;19980;-79
2023/11/16 13:45:56;;;;;;;;;;;15.60;99.90;;;;;;5010775;28;19921;-74
2023/11/16 13:48:23;;;;;;;;;;;15.60;99.90;;;;;;5004701;28;19917;-73
2023/11/16 13:50:51;;;;;;;;;;;15.50;99.90;;;;;;5011929;28;20269;-74
2023/11/16 13:53:19;;;;;;;;;;;15.50;99.90;;;;;;5005775;28;19949;-78
2023/11/16 13:55:45;;;;;;;;;;;15.40;99.90;;;;;;4991977;28;20422;-77
2023/11/16 13:58:11;;;;;;;;;;;15.30;99.90;;;;;;5000879;28;19917;-77
2023/11/16 14:00:37;;;;;;;;;;;15.30;99.90;;;;;;5009217;28;19917;-78
2023/11/16 14:03:07;;;;;;;;;;;15.30;99.90;;;;;;5021665;28;19929;-74
2023/11/16 14:05:35;;;;;;;;;;;15.50;99.90;;;;;;5004497;28;19980;-73
2023/11/16 14:08:01;;;;;;;;;;;15.40;99.90;;;;;;5008635;28;19925;-79
2023/11/16 14:10:27;;;;;;;;;;;15.40;99.90;;;;;;4996855;28;19922;-74
2023/11/16 14:12:53;;;;;;;;;;;15.40;99.90;;;;;;5001514;28;19914;-73
2023/11/16 14:15:18;;;;;;;;;;;15.30;99.90;;;;;;4993362;28;19928;-74
2023/11/16 14:17:44;;;;;;;;;;;15.20;99.90;;;;;;4996079;28;19940;-74